Time;durP1;ratioP1;P1;durP2;ratioP2;P2;SDS_P1;SDS_P2;PMS_P1;PMS_P2;Temp;Humidity;BMP_temperature;BMP_pressure;BME280_temperature;BME280_humidity;BME280_pressure;Samples;Min_cycle;Max_cycle;Signal;HPM_P1;HPM_P2
2021/06/11 04:15:52;;;;;;;20.23;14.30;;;;;;;13.54;100.00;99126.78;5740317;23;20042;-75
2021/06/11 04:18:26;;;;;;;30.13;13.70;;;;;;;13.44;100.00;99120.09;4973886;28;20038;-75
2021/06/11 04:20:56;;;;;;;19.00;14.38;;;;;;;13.42;100.00;99129.66;4973764;28;20027;-75
2021/06/11 04:23:26;;;;;;;33.33;14.63;;;;;;;13.41;100.00;99130.56;4973594;28;20468;-75
2021/06/11 04:25:53;;;;;;;26.80;13.48;;;;;;;13.49;100.00;99128.63;4973459;28;20105;-75
2021/06/11 04:28:19;;;;;;;21.30;13.07;;;;;;;13.58;100.00;99127.53;4969647;28;20411;-75
2021/06/11 04:30:45;;;;;;;16.30;13.75;;;;;;;13.54;100.00;99123.31;4965299;28;20030;-71
2021/06/11 04:33:27;;;;;;;16.63;13.98;;;;;;;13.52;100.00;99127.69;4964537;28;20130;-71
2021/06/11 04:35:53;;;;;;;21.23;13.70;;;;;;;13.47;100.00;99132.16;4964962;28;20642;-71
2021/06/11 04:38:19;;;;;;;15.02;13.40;;;;;;;13.57;100.00;99137.09;4964597;28;20030;-71
2021/06/11 04:40:45;;;;;;;14.25;12.30;;;;;;;13.74;100.00;99128.88;4964783;28;20058;-71
2021/06/11 04:43:11;;;;;;;16.75;13.85;;;;;;;13.71;100.00;99128.94;4964631;28;20109;-73
2021/06/11 04:45:37;;;;;;;15.00;12.75;;;;;;;13.86;100.00;99128.56;4964853;28;20433;-71
2021/06/11 04:48:03;;;;;;;15.63;11.75;;;;;;;13.90;100.00;99137.16;4964519;28;20193;-71
2021/06/11 04:50:29;;;;;;;14.60;12.25;;;;;;;14.09;100.00;99135.78;4964529;28;20499;-71
2021/06/11 04:52:55;;;;;;;15.85;12.88;;;;;;;14.13;100.00;99132.19;4964517;28;20027;-71
2021/06/11 04:55:20;;;;;;;13.57;11.40;;;;;;;14.15;100.00;99138.22;4964559;28;20127;-71
2021/06/11 04:57:46;;;;;;;15.68;12.38;;;;;;;14.31;100.00;99137.81;4964176;28;20699;-71
2021/06/11 05:00:12;;;;;;;14.77;12.20;;;;;;;14.24;100.00;99136.28;4964524;28;20034;-70
2021/06/11 05:02:37;;;;;;;16.25;13.10;;;;;;;14.29;100.00;99137.00;4964531;28;20023;-71
2021/06/11 05:05:03;;;;;;;18.88;12.82;;;;;;;14.20;100.00;99139.84;4965495;28;20030;-70
2021/06/11 05:07:29;;;;;;;17.40;12.82;;;;;;;14.30;100.00;99142.16;4968259;28;20706;-71
2021/06/11 05:09:54;;;;;;;16.50;12.27;;;;;;;14.29;100.00;99137.00;4968416;28;20034;-70
2021/06/11 05:12:20;;;;;;;15.65;12.75;;;;;;;14.21;100.00;99133.75;4968176;28;20034;-71
2021/06/11 05:14:45;;;;;;;21.73;11.40;;;;;;;14.40;100.00;99138.41;4968335;28;20043;-71
2021/06/11 05:17:10;;;;;;;14.35;12.38;;;;;;;14.35;100.00;99140.28;4968079;28;20027;-70
2021/06/11 05:19:36;;;;;;;22.60;13.00;;;;;;;14.41;100.00;99149.72;4968190;28;20033;-71
2021/06/11 05:22:02;;;;;;;17.63;12.10;;;;;;;14.46;100.00;99149.59;4968291;28;20109;-71
2021/06/11 05:24:27;;;;;;;14.80;11.93;;;;;;;14.45;100.00;99147.84;4968146;28;21343;-70
2021/06/11 05:26:53;;;;;;;20.83;11.90;;;;;;;14.56;100.00;99151.91;4967886;28;20061;-71
2021/06/11 05:29:18;;;;;;;13.93;11.88;;;;;;;14.49;100.00;99150.38;4968104;28;20098;-71
2021/06/11 05:31:43;;;;;;;13.10;11.77;;;;;;;14.57;100.00;99152.78;4968167;28;20464;-70
2021/06/11 05:34:10;;;;;;;16.23;12.63;;;;;;;14.60;100.00;99147.44;4967958;28;20031;-71
2021/06/11 05:36:35;;;;;;;13.10;11.80;;;;;;;14.57;100.00;99148.41;4967831;28;20038;-71
2021/06/11 05:39:00;;;;;;;15.85;11.65;;;;;;;14.57;100.00;99152.78;4967745;28;21455;-71
2021/06/11 05:41:26;;;;;;;13.98;12.40;;;;;;;14.71;100.00;99149.78;4967767;28;20030;-71
2021/06/11 05:43:51;;;;;;;15.48;11.68;;;;;;;14.98;99.15;99153.31;4967863;28;20042;-70
2021/06/11 05:46:17;;;;;;;13.15;11.55;;;;;;;15.10;98.57;99159.03;4967710;28;20035;-71
2021/06/11 05:48:43;;;;;;;21.60;11.68;;;;;;;15.43;97.94;99159.75;4967655;28;20492;-71
2021/06/11 05:51:09;;;;;;;12.45;10.98;;;;;;;15.65;96.27;99151.25;4967726;28;20560;-71
2021/06/11 05:53:35;;;;;;;11.73;10.57;;;;;;;15.72;94.77;99160.59;4967496;28;20030;-71
2021/06/11 05:56:01;;;;;;;13.23;11.23;;;;;;;15.76;95.67;99153.50;4966148;28;20125;-71
2021/06/11 05:58:27;;;;;;;12.02;10.60;;;;;;;15.85;94.64;99156.66;4967447;28;20050;-71
2021/06/11 06:00:52;;;;;;;15.40;11.52;;;;;;;15.89;95.04;99149.59;4967459;28;20117;-71
2021/06/11 06:03:18;;;;;;;11.18;9.98;;;;;;;16.11;94.13;99150.56;4960453;28;20081;-69
2021/06/11 06:05:43;;;;;;;12.02;9.95;;;;;;;16.37;93.05;99144.41;4960963;28;20067;-69
2021/06/11 06:08:09;;;;;;;12.30;9.60;;;;;;;16.59;91.33;99141.91;4966607;28;20390;-69
2021/06/11 06:10:34;;;;;;;12.82;9.90;;;;;;;16.95;90.65;99144.91;4966406;28;20031;-69
2021/06/11 06:12:59;;;;;;;10.90;9.68;;;;;;;16.99;89.89;99150.06;4966871;28;20034;-69
2021/06/11 06:15:25;;;;;;;11.40;10.20;;;;;;;16.92;89.61;99146.78;4966802;28;20090;-69
2021/06/11 06:17:51;;;;;;;12.35;10.05;;;;;;;17.11;87.78;99137.31;4966020;28;20545;-69
2021/06/11 06:20:16;;;;;;;9.68;8.68;;;;;;;17.25;86.98;99141.19;4966986;28;20038;-69
2021/06/11 06:22:42;;;;;;;9.95;8.55;;;;;;;17.70;85.54;99143.75;4965953;28;20030;-69
2021/06/11 06:25:08;;;;;;;11.05;8.77;;;;;;;17.44;84.89;99142.16;4966520;28;20105;-69
2021/06/11 06:27:35;;;;;;;10.23;9.23;;;;;;;17.59;86.25;99136.28;4966566;28;20082;-69
2021/06/11 06:30:02;;;;;;;9.10;8.05;;;;;;;17.98;83.63;99139.06;4966872;28;20089;-69
2021/06/11 06:32:29;;;;;;;10.45;8.35;;;;;;;17.95;82.91;99133.97;4966595;28;20049;-70
2021/06/11 06:34:56;;;;;;;10.57;8.50;;;;;;;18.35;83.50;99137.47;4965669;28;20034;-69
2021/06/11 06:37:21;;;;;;;14.27;8.60;;;;;;;17.98;82.53;99143.44;4966388;28;20058;-71
2021/06/11 06:39:46;;;;;;;9.05;7.90;;;;;;;18.59;81.35;99137.31;4966525;28;20061;-70
2021/06/11 06:42:12;;;;;;;8.75;7.85;;;;;;;18.75;77.68;99140.97;4963389;28;20035;-71
2021/06/11 06:44:39;;;;;;;7.97;7.18;;;;;;;19.23;77.69;99143.09;4966615;28;20135;-69
2021/06/11 06:47:05;;;;;;;8.25;7.45;;;;;;;19.57;76.92;99146.72;4965432;28;20081;-71
2021/06/11 06:49:32;;;;;;;11.48;7.38;;;;;;;19.84;74.68;99148.97;4966426;28;20026;-71
2021/06/11 06:51:58;;;;;;;7.93;7.07;;;;;;;21.07;69.52;99138.16;4966375;28;20077;-70
2021/06/11 06:54:23;;;;;;;7.30;6.55;;;;;;;21.75;68.76;99136.91;4966139;28;21483;-71
2021/06/11 06:56:48;;;;;;;8.80;6.15;;;;;;;23.67;60.61;99133.06;4965702;28;20066;-70
2021/06/11 06:59:14;;;;;;;7.45;5.72;;;;;;;24.63;58.99;99136.28;4965594;28;20037;-70
2021/06/11 07:01:39;;;;;;;5.30;4.80;;;;;;;25.81;52.97;99129.44;4966286;28;20050;-71
2021/06/11 07:04:04;;;;;;;5.00;4.50;;;;;;;26.96;49.55;99135.69;4966022;28;20031;-70
2021/06/11 07:06:30;;;;;;;4.82;4.35;;;;;;;27.08;49.10;99134.75;4965277;28;20054;-70
2021/06/11 07:08:55;;;;;;;5.00;4.43;;;;;;;26.57;49.39;99137.88;4965441;28;20022;-71
2021/06/11 07:11:22;;;;;;;4.78;4.28;;;;;;;28.15;47.21;99150.72;4965508;28;20031;-70
2021/06/11 07:13:48;;;;;;;5.90;4.28;;;;;;;29.37;43.35;99144.56;4965931;28;20700;-70
2021/06/11 07:16:14;;;;;;;4.43;4.10;;;;;;;28.74;44.03;99143.06;4965525;28;20038;-70
2021/06/11 07:18:40;;;;;;;5.45;4.18;;;;;;;27.90;45.31;99145.78;4965807;28;20045;-70
2021/06/11 07:21:06;;;;;;;6.60;3.97;;;;;;;28.93;43.34;99135.97;4960354;28;20030;-71
2021/06/11 07:23:33;;;;;;;4.78;4.38;;;;;;;26.98;47.47;99152.34;4962628;28;20023;-70
2021/06/11 07:26:08;;;;;;;5.18;4.40;;;;;;;28.65;44.58;99142.03;4957984;28;20113;-71
2021/06/11 07:28:38;;;;;;;6.05;4.45;;;;;;;29.84;41.14;99147.44;4964682;28;20030;-69
2021/06/11 07:31:04;;;;;;;4.32;3.92;;;;;;;29.83;40.08;99140.38;4966222;28;20041;-71
2021/06/11 07:33:30;;;;;;;6.45;4.53;;;;;;;29.35;41.72;99141.19;4961584;28;20122;-72
2021/06/11 07:35:57;;;;;;;4.93;4.50;;;;;;;29.66;41.97;99143.78;4968923;28;20030;-71
2021/06/11 07:38:23;;;;;;;5.72;4.00;;;;;;;29.59;42.25;99142.63;4953841;28;20106;-70
2021/06/11 07:40:51;;;;;;;4.78;4.38;;;;;;;30.37;39.71;99132.78;4954953;28;20110;-70
2021/06/11 07:43:16;;;;;;;4.43;4.07;;;;;;;30.81;37.75;99138.41;4954497;28;20019;-71
2021/06/11 07:45:42;;;;;;;4.47;4.07;;;;;;;32.03;36.30;99138.91;4953662;28;20046;-70
2021/06/11 07:48:07;;;;;;;4.53;4.13;;;;;;;32.62;34.11;99131.94;4954584;28;20038;-69
2021/06/11 07:50:33;;;;;;;7.85;4.40;;;;;;;30.74;35.82;99138.16;4954613;28;20023;-70
2021/06/11 07:52:58;;;;;;;6.63;4.60;;;;;;;28.00;39.80;99143.19;4954506;28;20153;-69
2021/06/11 07:55:23;;;;;;;4.55;4.10;;;;;;;31.01;35.20;99136.50;4953764;28;20535;-70
2021/06/11 07:57:49;;;;;;;7.40;4.50;;;;;;;32.42;32.82;99129.47;4953868;28;20782;-70
2021/06/11 08:00:15;;;;;;;4.60;4.15;;;;;;;32.40;33.74;99134.19;4954428;28;20023;-69
2021/06/11 08:02:42;;;;;;;4.50;4.10;;;;;;;32.25;34.01;99143.75;4954403;28;20015;-70
2021/06/11 08:05:09;;;;;;;4.82;4.20;;;;;;;32.47;34.10;99135.22;4954276;28;20038;-70
2021/06/11 08:07:34;;;;;;;6.60;4.03;;;;;;;32.23;35.04;99135.88;4953266;28;20023;-70
2021/06/11 08:10:00;;;;;;;4.47;4.05;;;;;;;31.36;37.21;99139.25;4953975;28;20373;-70
2021/06/11 08:12:26;;;;;;;4.50;3.75;;;;;;;32.71;35.50;99128.31;4954192;28;20078;-70
2021/06/11 08:14:51;;;;;;;4.43;4.03;;;;;;;32.53;34.96;99132.91;4954186;28;20063;-70
2021/06/11 08:17:16;;;;;;;7.85;4.13;;;;;;;32.44;34.46;99126.63;4953810;28;20515;-70
2021/06/11 08:19:42;;;;;;;7.78;4.65;;;;;;;29.16;39.95;99130.47;4953113;28;20110;-70
2021/06/11 08:22:07;;;;;;;5.15;4.30;;;;;;;31.61;36.31;99134.13;4954010;28;20046;-70
2021/06/11 08:24:33;;;;;;;6.22;3.85;;;;;;;32.03;36.52;99123.66;4954080;28;20023;-70
2021/06/11 08:26:58;;;;;;;5.30;4.47;;;;;;;32.54;34.56;99115.78;4953615;28;20023;-70
2021/06/11 08:29:24;;;;;;;4.50;4.10;;;;;;;33.44;33.56;99115.16;4952105;28;20500;-70
2021/06/11 08:31:51;;;;;;;7.57;3.88;;;;;;;34.31;32.78;99118.22;4952796;28;20027;-70
2021/06/11 08:34:16;;;;;;;6.25;4.78;;;;;;;33.22;33.78;99115.78;4953843;28;20029;-70
2021/06/11 08:36:42;;;;;;;6.35;4.60;;;;;;;33.92;33.79;99113.53;4953621;28;20031;-70
2021/06/11 08:39:07;;;;;;;4.85;4.45;;;;;;;32.43;35.03;99123.09;4953716;28;20383;-70
2021/06/11 08:41:33;;;;;;;5.35;4.25;;;;;;;33.54;33.12;99115.00;4953354;28;20085;-70
2021/06/11 08:43:59;;;;;;;4.63;4.20;;;;;;;34.35;30.74;99114.19;4953040;28;20029;-70
2021/06/11 08:46:25;;;;;;;5.30;4.32;;;;;;;34.08;30.21;99114.53;4953544;28;20039;-69
2021/06/11 08:48:52;;;;;;;4.30;3.90;;;;;;;33.89;31.88;99113.84;4953694;28;20038;-70
2021/06/11 08:51:17;;;;;;;4.30;3.90;;;;;;;34.49;31.25;99116.19;4953690;28;20393;-70
2021/06/11 08:53:43;;;;;;;4.43;4.03;;;;;;;35.13;29.44;99112.59;4963165;28;20023;-70
2021/06/11 08:56:08;;;;;;;7.38;5.00;;;;;;;32.98;31.81;99117.38;4955886;28;20038;-70
2021/06/11 08:58:38;;;;;;;5.60;4.13;;;;;;;33.45;31.00;99116.84;4972659;28;20029;-70
2021/06/11 09:01:04;;;;;;;4.32;3.92;;;;;;;33.70;32.68;99114.19;4972916;28;20027;-70
2021/06/11 09:03:37;;;;;;;4.07;3.78;;;;;;;34.97;29.12;99114.38;4972885;28;20027;-70
2021/06/11 09:06:04;;;;;;;4.80;3.95;;;;;;;34.36;29.44;99109.63;4971889;28;20037;-70
2021/06/11 09:08:29;;;;;;;7.53;3.92;;;;;;;33.24;32.39;99113.75;4972794;28;20106;-70
2021/06/11 09:11:24;;;;;;;6.80;4.25;;;;;;;28.24;41.58;99122.44;4972910;28;20411;-73
2021/06/11 09:14:05;;;;;;;4.95;4.55;;;;;;;28.66;41.96;99120.56;4971086;28;20031;-72
2021/06/11 09:16:52;;;;;;;6.18;5.10;;;;;;;30.50;39.28;99111.03;4959558;28;20035;-73
2021/06/11 09:19:23;;;;;;;6.32;4.65;;;;;;;33.36;33.39;99112.44;4972274;28;20041;-73
2021/06/11 09:21:53;;;;;;;6.63;4.32;;;;;;;33.35;31.56;99110.75;4971411;28;20031;-73
2021/06/11 09:24:27;;;;;;;5.38;4.28;;;;;;;34.46;30.88;99105.75;4958164;28;20015;-73
2021/06/11 09:27:02;;;;;;;3.88;3.58;;;;;;;34.26;30.87;99104.44;4972666;28;20053;-73
2021/06/11 09:29:49;;;;;;;6.38;3.67;;;;;;;35.22;29.20;99106.16;4971619;28;20066;-73
2021/06/11 09:32:19;;;;;;;7.15;3.95;;;;;;;35.01;31.00;99104.91;4972634;28;20031;-73
2021/06/11 09:34:56;;;;;;;5.25;4.00;;;;;;;35.76;28.80;99103.44;4972435;28;20022;-74
2021/06/11 09:37:27;;;;;;;8.88;3.95;;;;;;;35.09;30.88;99109.41;4972646;28;20062;-73
2021/06/11 09:40:02;;;;;;;4.90;4.40;;;;;;;34.40;30.30;99100.22;4972303;28;20027;-73
2021/06/11 09:42:33;;;;;;;4.95;3.65;;;;;;;34.84;31.81;99095.19;4971939;28;20480;-74
2021/06/11 09:44:59;;;;;;;4.25;3.95;;;;;;;35.09;28.39;99100.50;4972516;28;20042;-73
2021/06/11 09:47:32;;;;;;;4.25;3.90;;;;;;;32.40;32.19;99099.31;4972246;28;20543;-73
2021/06/11 09:50:06;;;;;;;4.80;4.10;;;;;;;34.69;29.63;99094.25;4972394;28;20039;-73
2021/06/11 09:52:35;;;;;;;4.75;4.10;;;;;;;34.03;29.47;99098.06;4973317;28;20027;-73
2021/06/11 09:55:05;;;;;;;4.35;3.70;;;;;;;35.94;27.86;99098.59;4975325;28;20034;-73
2021/06/11 09:57:33;;;;;;;3.92;3.58;;;;;;;35.83;29.85;99088.22;4975622;28;20027;-73
2021/06/11 10:00:00;;;;;;;4.88;3.40;;;;;;;35.08;27.70;99093.44;4975863;28;20031;-73
2021/06/11 10:02:29;;;;;;;3.70;3.40;;;;;;;34.80;29.13;99085.78;4975967;28;20030;-73
2021/06/11 10:04:55;;;;;;;3.55;3.25;;;;;;;35.74;27.26;99086.59;4957552;28;20031;-73
2021/06/11 10:07:21;;;;;;;6.03;3.58;;;;;;;35.00;27.34;99089.75;4975477;28;20109;-73
2021/06/11 10:09:46;;;;;;;3.75;3.45;;;;;;;34.95;28.44;99085.88;4975678;28;20064;-73
2021/06/11 10:12:12;;;;;;;4.30;3.45;;;;;;;33.05;30.92;99081.81;4975679;28;20026;-73
2021/06/11 10:14:39;;;;;;;4.00;3.47;;;;;;;33.38;29.90;99082.72;4975496;28;20429;-73
2021/06/11 10:17:06;;;;;;;4.72;4.05;;;;;;;35.36;27.19;99074.91;4974246;28;20508;-73
2021/06/11 10:19:31;;;;;;;6.07;3.80;;;;;;;36.70;26.61;99084.97;4975451;28;20571;-73
2021/06/11 10:21:57;;;;;;;3.60;3.30;;;;;;;36.70;26.15;99079.56;4975434;28;20022;-73
2021/06/11 10:24:22;;;;;;;3.80;3.50;;;;;;;36.76;25.17;99074.28;4975330;28;20023;-73
2021/06/11 10:26:49;;;;;;;4.85;3.83;;;;;;;33.81;28.80;99073.53;4974700;28;20026;-73
2021/06/11 10:29:17;;;;;;;8.40;5.72;;;;;;;36.70;26.72;99068.75;4975151;28;20030;-70
2021/06/11 10:31:43;;;;;;;3.05;2.80;;;;;;;35.51;27.60;99078.53;4975543;28;20031;-70
2021/06/11 10:34:09;;;;;;;4.28;3.90;;;;;;;33.68;27.94;99073.19;4956049;28;20070;-70
2021/06/11 10:36:38;;;;;;;3.72;3.20;;;;;;;35.99;26.60;99066.50;4955758;28;20515;-71
2021/06/11 10:39:24;;;;;;;3.88;3.42;;;;;;;37.12;25.13;99067.22;4955204;28;20023;-71
2021/06/11 10:41:52;;;;;;;7.25;3.17;;;;;;;37.58;25.54;99067.72;4955373;29;20039;-71
2021/06/11 10:44:40;;;;;;;5.57;4.95;;;;;;;36.38;25.57;99073.50;4959984;28;20023;-71
2021/06/11 10:47:23;;;;;;;5.27;3.47;;;;;;;36.16;25.21;99066.31;4966282;28;21498;-70
2021/06/11 10:49:57;;;;;;;4.97;3.40;;;;;;;32.60;29.14;99064.19;4964983;28;20404;-70
2021/06/11 10:52:31;;;;;;;5.65;3.42;;;;;;;34.17;29.20;99057.03;4965619;28;20034;-70
2021/06/11 10:55:17;;;;;;;5.22;3.25;;;;;;;35.71;26.05;99062.69;4965325;28;20046;-70
2021/06/11 10:58:08;;;;;;;4.18;3.78;;;;;;;35.15;27.96;99056.66;4965889;28;20027;-70
2021/06/11 11:00:38;;;;;;;3.95;3.30;;;;;;;36.73;25.47;99046.78;4964472;28;20110;-70
2021/06/11 11:03:05;;;;;;;9.45;3.45;;;;;;;37.39;23.93;99055.69;4964764;28;20023;-70
2021/06/11 11:05:33;;;;;;;3.17;2.88;;;;;;;36.29;25.71;99055.72;4965982;28;20649;-70
2021/06/11 11:08:00;;;;;;;4.25;3.30;;;;;;;35.75;25.71;99054.06;4965784;28;20440;-70
2021/06/11 11:10:34;;;;;;;3.97;3.10;;;;;;;35.14;24.85;99055.00;4965858;28;20038;-71
2021/06/11 11:13:00;;;;;;;6.93;3.28;;;;;;;34.06;26.37;99044.78;4965796;28;20392;-70
2021/06/11 11:15:34;;;;;;;3.17;2.88;;;;;;;33.10;27.33;99049.94;4964916;28;20027;-70
2021/06/11 11:18:00;;;;;;;3.53;3.22;;;;;;;31.13;30.31;99055.78;4965559;28;20023;-71
2021/06/11 11:20:30;;;;;;;5.10;3.25;;;;;;;30.27;30.72;99047.22;4965638;28;20507;-70
2021/06/11 11:22:59;;;;;;;4.10;3.70;;;;;;;32.88;27.05;99044.16;4965658;28;20084;-70
2021/06/11 11:25:25;;;;;;;7.47;3.38;;;;;;;35.01;26.01;99040.28;4965244;28;20369;-71
2021/06/11 11:27:52;;;;;;;5.80;3.13;;;;;;;34.74;25.10;99040.72;4964981;28;20035;-70
2021/06/11 11:30:20;;;;;;;6.63;3.63;;;;;;;34.69;27.38;99041.25;4965378;28;20058;-71
2021/06/11 11:32:46;;;;;;;4.05;3.00;;;;;;;34.41;25.17;99034.59;4965609;28;20121;-70
2021/06/11 11:35:16;;;;;;;3.42;3.20;;;;;;;34.28;26.62;99032.44;4965364;28;20404;-70
2021/06/11 11:37:41;;;;;;;4.65;3.53;;;;;;;34.75;26.81;99034.31;4964549;28;20057;-71
2021/06/11 11:40:08;;;;;;;7.60;3.95;;;;;;;35.23;25.26;99033.19;4965191;28;20030;-74
2021/06/11 11:42:33;;;;;;;3.95;3.55;;;;;;;35.41;26.76;99024.81;4965302;28;20514;-75
2021/06/11 11:44:58;;;;;;;5.18;3.17;;;;;;;34.30;27.16;99025.06;4965465;28;20027;-75
2021/06/11 11:47:24;;;;;;;3.63;2.95;;;;;;;33.22;27.21;99019.09;4965162;28;20031;-75
2021/06/11 11:49:49;;;;;;;4.30;3.00;;;;;;;31.43;29.13;99025.16;4964197;28;20037;-74
2021/06/11 11:52:14;;;;;;;3.72;3.42;;;;;;;29.83;33.56;99025.50;4965098;28;21308;-74
2021/06/11 11:54:40;;;;;;;7.70;3.75;;;;;;;28.88;33.05;99031.50;4965174;28;20483;-74
2021/06/11 11:57:05;;;;;;;3.80;3.50;;;;;;;28.61;34.95;99028.63;4965002;28;20065;-74
2021/06/11 11:59:31;;;;;;;9.02;3.83;;;;;;;28.79;34.59;99026.97;4965146;28;20030;-74
2021/06/11 12:01:56;;;;;;;7.88;4.00;;;;;;;28.91;35.61;99020.56;4963488;28;20106;-74
2021/06/11 12:04:23;;;;;;;4.13;3.47;;;;;;;28.78;36.86;99019.13;4964553;28;20030;-71
2021/06/11 12:06:48;;;;;;;4.32;4.00;;;;;;;28.45;35.32;99020.28;4964801;28;20047;-70
2021/06/11 12:09:14;;;;;;;4.93;3.22;;;;;;;28.76;35.52;99016.56;4965019;28;20035;-70
2021/06/11 12:11:39;;;;;;;4.70;3.88;;;;;;;27.84;36.66;99011.25;4964807;28;20396;-70
2021/06/11 12:14:05;;;;;;;6.93;5.15;;;;;;;28.46;36.53;99003.31;4963475;28;20027;-70
2021/06/11 12:16:32;;;;;;;6.00;3.53;;;;;;;28.65;34.44;99003.38;4964345;28;20121;-70
2021/06/11 12:18:57;;;;;;;4.47;3.80;;;;;;;28.87;33.88;99003.13;4964826;28;20491;-71
2021/06/11 12:21:23;;;;;;;5.63;4.03;;;;;;;27.70;34.99;99000.91;4964801;28;20121;-71
2021/06/11 12:23:48;;;;;;;4.85;3.40;;;;;;;28.40;34.39;99004.69;4964014;28;20502;-71
2021/06/11 12:26:14;;;;;;;7.55;5.47;;;;;;;28.97;34.00;99008.53;4962270;28;20118;-71
2021/06/11 12:28:40;;;;;;;6.78;4.10;;;;;;;29.40;35.37;98999.25;4957744;28;20388;-71
2021/06/11 12:31:05;;;;;;;11.18;3.78;;;;;;;27.35;33.98;99011.88;4962728;28;20022;-71
2021/06/11 12:33:30;;;;;;;4.90;3.40;;;;;;;27.11;35.83;99014.75;4964448;28;20577;-71
2021/06/11 12:35:56;;;;;;;4.97;3.25;;;;;;;27.67;34.43;99002.03;4958407;28;20033;-71
2021/06/11 12:38:21;;;;;;;4.13;3.60;;;;;;;27.72;35.59;99008.81;4964508;28;20132;-71
2021/06/11 12:40:49;;;;;;;6.22;3.20;;;;;;;27.52;35.20;99002.50;4964490;28;20924;-71
2021/06/11 12:43:18;;;;;;;5.00;3.10;;;;;;;27.38;33.11;99007.16;4964541;28;20033;-71
2021/06/11 12:45:44;;;;;;;4.43;2.90;;;;;;;26.83;32.84;99006.34;4964377;28;20030;-70
2021/06/11 12:48:11;;;;;;;4.38;3.10;;;;;;;27.01;33.53;98997.84;4961031;28;20031;-70
2021/06/11 12:50:40;;;;;;;6.50;3.42;;;;;;;26.53;33.32;99007.00;4964353;28;20035;-71
2021/06/11 12:53:06;;;;;;;4.80;2.75;;;;;;;27.10;33.77;99005.94;4964253;28;20026;-71
2021/06/11 12:55:35;;;;;;;8.07;3.63;;;;;;;27.30;33.82;99004.28;4964139;28;20041;-71
2021/06/11 12:58:00;;;;;;;3.40;3.05;;;;;;;27.06;34.77;98990.31;4963881;28;20034;-71
2021/06/11 13:00:25;;;;;;;3.40;3.10;;;;;;;26.71;35.91;99001.19;4963511;28;20109;-71
2021/06/11 13:02:52;;;;;;;5.93;3.33;;;;;;;26.61;37.76;98995.78;4964432;28;20077;-71
2021/06/11 13:05:21;;;;;;;4.47;3.55;;;;;;;26.66;36.06;98993.59;4964119;28;20032;-71
2021/06/11 13:07:46;;;;;;;3.40;3.08;;;;;;;27.29;35.32;98985.78;4964200;28;20048;-71
2021/06/11 13:10:12;;;;;;;3.60;3.30;;;;;;;27.22;35.86;98990.75;4962919;28;20035;-70
2021/06/11 13:12:37;;;;;;;4.22;3.33;;;;;;;27.52;35.67;98975.88;4963690;28;20031;-70
2021/06/11 13:15:03;;;;;;;4.50;3.47;;;;;;;27.56;36.23;98972.81;4964196;28;20034;-70
2021/06/11 13:17:28;;;;;;;3.33;3.13;;;;;;;27.80;35.61;98980.56;4963963;28;20063;-70
2021/06/11 13:19:53;;;;;;;3.20;3.00;;;;;;;28.66;33.39;98973.88;4964054;28;20023;-70
2021/06/11 13:22:19;;;;;;;3.38;3.08;;;;;;;29.05;31.84;98965.94;4963324;28;20026;-70
2021/06/11 13:24:45;;;;;;;3.15;2.88;;;;;;;28.76;32.86;98965.91;4963940;28;20027;-70
2021/06/11 13:27:11;;;;;;;3.15;2.85;;;;;;;29.56;31.70;98966.66;4966471;28;20031;-70
2021/06/11 13:29:36;;;;;;;4.55;3.00;;;;;;;28.02;29.40;98968.03;4963789;28;20077;-70
2021/06/11 13:32:02;;;;;;;2.50;2.30;;;;;;;27.58;29.25;98959.38;4963347;28;20038;-70
2021/06/11 13:34:27;;;;;;;3.05;2.47;;;;;;;27.71;28.94;98962.72;4966315;28;20035;-70
2021/06/11 13:36:52;;;;;;;2.97;2.63;;;;;;;28.38;30.34;98964.88;4967498;28;20682;-70
2021/06/11 13:39:17;;;;;;;2.65;2.40;;;;;;;28.92;28.31;98963.53;4967573;28;20037;-70
2021/06/11 13:41:44;;;;;;;3.38;2.58;;;;;;;28.55;29.98;98959.84;4967824;28;20089;-70
2021/06/11 13:44:09;;;;;;;2.35;2.20;;;;;;;28.07;30.98;98966.66;4967515;28;20023;-70
2021/06/11 13:46:35;;;;;;;2.50;2.35;;;;;;;28.41;28.49;98948.56;4965738;28;20058;-70
2021/06/11 13:49:00;;;;;;;3.08;2.88;;;;;;;28.26;28.79;98949.91;4966538;28;20035;-70
2021/06/11 13:51:25;;;;;;;4.88;3.10;;;;;;;28.15;29.43;98956.19;4967769;28;20038;-70
2021/06/11 13:53:51;;;;;;;4.57;2.92;;;;;;;28.24;30.83;98957.22;4967205;28;20762;-70
2021/06/11 13:56:17;;;;;;;6.38;2.75;;;;;;;28.42;30.27;98955.59;4967164;28;20048;-70
2021/06/11 13:58:43;;;;;;;2.72;2.53;;;;;;;27.64;32.24;98956.19;4966383;28;20026;-75
2021/06/11 14:01:09;;;;;;;28.70;22.35;;;;;;;28.40;32.89;98952.22;4967300;28;20038;-74
2021/06/11 14:03:34;;;;;;;3.40;3.10;;;;;;;28.02;32.35;98946.72;4967178;28;20399;-74
2021/06/11 14:05:59;;;;;;;2.63;2.42;;;;;;;28.27;31.51;98948.06;4966935;28;20046;-74
2021/06/11 14:08:25;;;;;;;2.90;2.60;;;;;;;28.38;30.72;98946.19;4954046;28;20113;-74
2021/06/11 14:10:53;;;;;;;2.90;2.60;;;;;;;28.15;31.49;98950.84;4966369;28;20089;-74
2021/06/11 14:13:18;;;;;;;3.10;2.78;;;;;;;28.62;31.15;98945.81;4965252;28;20088;-73
2021/06/11 14:15:43;;;;;;;3.08;2.78;;;;;;;28.34;34.61;98947.44;4966534;28;20031;-74
2021/06/11 14:18:09;;;;;;;4.72;4.03;;;;;;;28.00;33.16;98948.69;4966644;28;20027;-73
2021/06/11 14:20:35;;;;;;;7.45;3.60;;;;;;;27.86;33.90;98942.75;4967113;28;20499;-74
2021/06/11 14:23:00;;;;;;;3.95;3.28;;;;;;;28.03;34.11;98951.06;4967017;28;20037;-73
2021/06/11 14:25:26;;;;;;;3.80;3.50;;;;;;;28.34;32.02;98947.44;4963613;28;20054;-73
2021/06/11 14:27:52;;;;;;;5.25;3.15;;;;;;;28.47;33.61;98951.66;4965943;28;20110;-76
2021/06/11 14:30:18;;;;;;;2.92;2.72;;;;;;;28.59;31.58;98942.59;4966632;28;20093;-76
2021/06/11 14:32:45;;;;;;;4.60;2.92;;;;;;;27.96;31.42;98940.13;4966596;28;20030;-77
2021/06/11 14:35:11;;;;;;;3.50;2.03;;;;;;;28.31;30.56;98941.50;4966841;28;20041;-77
2021/06/11 14:37:37;;;;;;;3.10;2.80;;;;;;;28.36;31.84;98945.47;4965499;28;20058;-77
2021/06/11 14:40:03;;;;;;;6.05;2.88;;;;;;;28.17;31.70;98940.06;4966694;28;20381;-72
2021/06/11 14:42:28;;;;;;;7.55;3.35;;;;;;;28.64;31.31;98938.53;4966529;28;20027;-72
2021/06/11 14:44:53;;;;;;;2.28;2.17;;;;;;;28.39;31.00;98939.88;4966523;28;20050;-72
2021/06/11 14:47:19;;;;;;;4.97;2.80;;;;;;;26.81;31.19;98939.16;4966206;28;20133;-77
2021/06/11 14:49:44;;;;;;;5.70;2.80;;;;;;;27.89;29.78;98931.81;4966592;28;20038;-77
2021/06/11 14:52:11;;;;;;;2.50;2.30;;;;;;;28.67;30.14;98924.06;4966430;28;20034;-77
2021/06/11 14:54:38;;;;;;;5.53;2.50;;;;;;;28.98;29.67;98929.31;4966257;28;20034;-77
2021/06/11 14:57:06;;;;;;;3.58;2.60;;;;;;;28.90;28.94;98922.81;4966065;28;20026;-73
2021/06/11 14:59:32;;;;;;;6.63;2.90;;;;;;;28.43;31.59;98924.44;4966124;28;20093;-72
2021/06/11 15:01:57;;;;;;;3.92;2.85;;;;;;;28.42;30.88;98928.94;4966180;28;20404;-73
2021/06/11 15:04:23;;;;;;;6.03;3.00;;;;;;;29.00;29.89;98916.66;4966111;28;20023;-74
2021/06/11 15:06:48;;;;;;;5.53;3.25;;;;;;;28.81;29.79;98918.31;4966107;28;20396;-76
2021/06/11 15:09:14;;;;;;;5.22;3.08;;;;;;;29.14;30.43;98914.41;4965861;28;20026;-77
2021/06/11 15:11:40;;;;;;;3.88;3.10;;;;;;;29.42;31.36;98918.03;4966105;28;20038;-77
2021/06/11 15:14:05;;;;;;;5.53;3.08;;;;;;;28.37;32.31;98917.84;4965930;28;20031;-77
2021/06/11 15:16:31;;;;;;;3.63;3.28;;;;;;;29.27;32.16;98914.13;4964580;28;20031;-72
2021/06/11 15:18:56;;;;;;;14.20;10.77;;;;;;;29.40;31.30;98913.81;4965777;28;20053;-72
2021/06/11 15:21:21;;;;;;;4.88;3.53;;;;;;;29.56;30.56;98913.25;4965635;28;20027;-72
2021/06/11 15:23:48;;;;;;;4.25;3.30;;;;;;;29.22;30.93;98905.69;4965801;28;20049;-76
2021/06/11 15:26:14;;;;;;;5.13;3.42;;;;;;;29.46;31.80;98910.56;4965548;28;20141;-77
2021/06/11 15:28:39;;;;;;;5.15;3.45;;;;;;;29.45;32.09;98912.41;4965969;28;20118;-80
2021/06/11 15:31:05;;;;;;;5.80;4.10;;;;;;;29.07;32.96;98912.47;4965583;28;20026;-78
2021/06/11 15:33:30;;;;;;;4.20;3.80;;;;;;;29.48;31.68;98910.41;4965488;28;20023;-80
2021/06/11 15:35:56;;;;;;;6.05;4.32;;;;;;;28.80;32.72;98911.28;4965838;28;20700;-79
2021/06/11 15:38:22;;;;;;;9.27;4.68;;;;;;;27.60;34.90;98910.31;4965275;28;20038;-80
2021/06/11 15:40:48;;;;;;;5.03;4.22;;;;;;;27.67;34.93;98910.66;4965816;28;20027;-81
2021/06/11 15:43:15;;;;;;;4.63;4.22;;;;;;;28.52;34.67;98909.44;4965767;28;20369;-80